Авиационная погода в Ивало

Регион: 
Погода METAR: 
EFIV 310950Z AUTO 16008KT 110V200 4100 -SN OVC017 M05/M08 Q0990
Время наблюдения: 
2020-03-31T09:50:00Z
Температура C: 
-5.0
Точка росы: 
-8.0
Направление ветра: 
160
Скорость ветра: 
8
Метеорологическая видимость: 
2.55
Явления погоды: 
-SN
Условия полета: 
IFR

Найти трансфер

С помощью этой формы Вы можете найти трансфер из аэропорта Авиационная погода в Ивало в город, аэропорт или вокзал: